createdAt,value
2019-04-01T00:01:07.414Z,1029.96
2019-04-01T00:03:00.178Z,1029.95
2019-04-01T00:05:00.387Z,1029.95
2019-04-01T00:07:00.142Z,1029.96
2019-04-01T00:09:00.233Z,1029.94
2019-04-01T00:11:00.181Z,1029.96
2019-04-01T00:13:00.164Z,1029.97
2019-04-01T00:15:00.340Z,1029.88
2019-04-01T00:17:00.222Z,1029.88
2019-04-01T00:19:04.784Z,1029.90
2019-04-01T00:21:00.173Z,1029.89
2019-04-01T00:23:00.370Z,1029.89
2019-04-01T00:25:00.353Z,1029.91
2019-04-01T00:27:00.197Z,1029.86
2019-04-01T00:29:00.241Z,1029.87
2019-04-01T00:31:00.176Z,1029.91
2019-04-01T00:33:05.231Z,1029.86
2019-04-01T00:35:04.066Z,1029.88
2019-04-01T00:37:00.185Z,1029.84
2019-04-01T00:39:04.677Z,1029.83
2019-04-01T00:41:00.289Z,1029.85
2019-04-01T00:43:04.795Z,1029.87
2019-04-01T00:45:00.390Z,1029.98
2019-04-01T00:47:00.223Z,1029.92
2019-04-01T00:49:00.193Z,1029.93
2019-04-01T00:51:00.202Z,1029.88
2019-04-01T00:53:00.212Z,1029.91
2019-04-01T00:55:03.859Z,1029.91
2019-04-01T00:57:00.209Z,1029.86
2019-04-01T00:59:00.223Z,1029.85
2019-04-01T01:01:00.185Z,1029.80
2019-04-01T01:03:05.239Z,1029.79
2019-04-01T01:05:00.924Z,1029.76
2019-04-01T01:07:00.179Z,1029.76
2019-04-01T01:09:00.186Z,1029.79
2019-04-01T01:11:04.873Z,1029.70
2019-04-01T01:13:00.180Z,1029.74
2019-04-01T01:15:05.220Z,1029.71
2019-04-01T01:17:00.221Z,1029.73
2019-04-01T01:19:00.198Z,1029.70
2019-04-01T01:21:01.054Z,1029.70
2019-04-01T01:23:00.231Z,1029.67
2019-04-01T01:25:00.355Z,1029.61
2019-04-01T01:27:00.199Z,1029.64
2019-04-01T01:29:00.226Z,1029.62
2019-04-01T01:31:00.194Z,1029.68
2019-04-01T01:33:00.213Z,1029.64
2019-04-01T01:35:00.347Z,1029.57
2019-04-01T01:37:05.237Z,1029.65
2019-04-01T01:39:00.200Z,1029.59
2019-04-01T01:41:00.225Z,1029.54
2019-04-01T01:43:00.225Z,1029.51
2019-04-01T01:45:00.414Z,1029.56
2019-04-01T01:47:05.422Z,1029.46
2019-04-01T01:49:01.252Z,1029.47
2019-04-01T01:51:04.609Z,1029.47
2019-04-01T01:53:05.412Z,1029.51
2019-04-01T01:55:00.466Z,1029.50
2019-04-01T01:57:00.217Z,1029.49
2019-04-01T01:59:00.224Z,1029.47
2019-04-01T02:01:00.208Z,1029.39
2019-04-01T02:03:00.205Z,1029.39
2019-04-01T02:05:04.844Z,1029.42
2019-04-01T02:07:00.233Z,1029.42
2019-04-01T02:09:04.726Z,1029.38
2019-04-01T02:11:00.268Z,1029.28
2019-04-01T02:13:04.552Z,1029.29
2019-04-01T02:15:00.378Z,1029.32
2019-04-01T02:17:05.149Z,1029.30
2019-04-01T02:19:05.215Z,1029.22
2019-04-01T02:21:00.220Z,1029.27
2019-04-01T02:23:05.158Z,1029.18
2019-04-01T02:25:00.365Z,1029.15
2019-04-01T02:27:00.222Z,1029.11
2019-04-01T02:29:00.252Z,1029.24
2019-04-01T02:31:00.226Z,1029.13
2019-04-01T02:33:00.353Z,1029.13
2019-04-01T02:35:05.610Z,1029.13
2019-04-01T02:37:05.229Z,1029.14
2019-04-01T02:39:04.608Z,1029.11
2019-04-01T02:41:00.250Z,1029.14
2019-04-01T02:43:00.223Z,1029.14
2019-04-01T02:45:00.622Z,1029.09
2019-04-01T02:47:04.872Z,1029.11
2019-04-01T02:49:00.256Z,1029.13
2019-04-01T02:51:00.210Z,1029.15
2019-04-01T02:53:00.259Z,1029.13
2019-04-01T02:55:00.590Z,1029.16
2019-04-01T02:57:00.221Z,1029.13
2019-04-01T02:59:00.273Z,1029.15
2019-04-01T03:01:00.256Z,1029.15
2019-04-01T03:03:05.286Z,1029.15
2019-04-01T03:05:00.519Z,1029.09
2019-04-01T03:07:00.233Z,1029.02
2019-04-01T03:09:00.248Z,1029.01
2019-04-01T03:11:00.285Z,1028.96
2019-04-01T03:13:00.237Z,1028.95
2019-04-01T03:15:00.543Z,1028.94
2019-04-01T03:17:00.270Z,1028.92
2019-04-01T03:19:00.248Z,1028.92
2019-04-01T03:21:05.273Z,1028.84
2019-04-01T03:23:00.292Z,1028.87
2019-04-01T03:25:05.198Z,1028.83
2019-04-01T03:27:01.326Z,1028.86
2019-04-01T03:29:00.264Z,1028.76
2019-04-01T03:31:00.417Z,1028.78
2019-04-01T03:33:05.252Z,1028.75
2019-04-01T03:35:01.331Z,1028.75
2019-04-01T03:37:04.664Z,1028.75
2019-04-01T03:39:00.253Z,1028.73
2019-04-01T03:41:00.305Z,1028.70
2019-04-01T03:43:00.238Z,1028.71
2019-04-01T03:45:03.093Z,1028.73
2019-04-01T03:47:00.286Z,1028.69
2019-04-01T03:49:00.261Z,1028.62
2019-04-01T03:51:00.273Z,1028.69
2019-04-01T03:53:05.285Z,1028.65
2019-04-01T03:55:00.519Z,1028.68
2019-04-01T03:57:05.322Z,1028.61
2019-04-01T03:59:00.276Z,1028.59
2019-04-01T04:01:00.229Z,1028.57
2019-04-01T04:03:00.294Z,1028.54
2019-04-01T04:05:00.647Z,1028.55
2019-04-01T04:07:00.251Z,1028.56
2019-04-01T04:09:02.165Z,1028.55
2019-04-01T04:11:00.276Z,1028.50
2019-04-01T04:13:04.787Z,1028.55
2019-04-01T04:15:05.215Z,1028.53
2019-04-01T04:17:00.275Z,1028.62
2019-04-01T04:19:00.246Z,1028.53
2019-04-01T04:21:00.333Z,1028.47
2019-04-01T04:23:00.287Z,1028.53
2019-04-01T04:25:00.586Z,1028.47
2019-04-01T04:27:01.196Z,1028.47
2019-04-01T04:29:00.302Z,1028.46
2019-04-01T04:31:00.262Z,1028.43
2019-04-01T04:33:02.455Z,1028.43
2019-04-01T04:35:00.361Z,1028.42
2019-04-01T04:37:07.700Z,1028.31
2019-04-01T04:39:00.275Z,1028.33
2019-04-01T04:41:06.467Z,1028.31
2019-04-01T04:43:00.254Z,1028.36
2019-04-01T04:45:00.467Z,1028.36
2019-04-01T04:47:01.545Z,1028.35
2019-04-01T04:49:00.261Z,1028.37
2019-04-01T04:51:00.271Z,1028.35
2019-04-01T04:53:00.328Z,1028.33
2019-04-01T04:55:00.374Z,1028.36
2019-04-01T04:57:04.988Z,1028.32
2019-04-01T04:59:00.297Z,1028.32
2019-04-01T05:01:04.885Z,1028.35
2019-04-01T05:03:04.681Z,1028.33
2019-04-01T05:05:00.441Z,1028.34
2019-04-01T05:07:00.291Z,1028.38
2019-04-01T05:09:00.272Z,1028.31
2019-04-01T05:11:00.320Z,1028.30
2019-04-01T05:13:01.543Z,1028.34
2019-04-01T05:15:00.452Z,1028.35
2019-04-01T05:17:04.372Z,1028.33
2019-04-01T05:19:00.278Z,1028.36
2019-04-01T05:21:00.283Z,1028.33
2019-04-01T05:23:00.305Z,1028.33
2019-04-01T05:25:00.394Z,1028.46
2019-04-01T05:27:05.477Z,1028.39
2019-04-01T05:29:04.952Z,1028.37
2019-04-01T05:31:00.296Z,1028.48
2019-04-01T05:33:05.286Z,1028.42
2019-04-01T05:35:00.388Z,1028.36
2019-04-01T05:37:08.468Z,1028.41
2019-04-01T05:39:04.799Z,1028.38
2019-04-01T05:41:00.310Z,1028.42
2019-04-01T05:43:00.295Z,1028.42
2019-04-01T05:45:00.396Z,1028.41
2019-04-01T05:47:00.368Z,1028.42
2019-04-01T05:49:00.303Z,1028.36
2019-04-01T05:51:05.296Z,1028.36
2019-04-01T05:53:00.347Z,1028.37
2019-04-01T05:55:00.477Z,1028.41
2019-04-01T05:57:04.807Z,1028.41
2019-04-01T05:59:00.306Z,1028.42
2019-04-01T06:01:05.258Z,1028.49
2019-04-01T06:03:01.165Z,1028.43
2019-04-01T06:05:00.398Z,1028.47
2019-04-01T06:07:00.295Z,1028.48
2019-04-01T06:09:00.305Z,1028.47
2019-04-01T06:11:00.335Z,1028.45
2019-04-01T06:13:00.304Z,1028.51
2019-04-01T06:15:05.861Z,1028.50
2019-04-01T06:17:00.325Z,1028.50
2019-04-01T06:19:06.053Z,1028.52
2019-04-01T06:21:04.867Z,1028.46
2019-04-01T06:23:00.314Z,1028.49
2019-04-01T06:25:00.383Z,1028.46
2019-04-01T06:27:05.334Z,1028.48
2019-04-01T06:29:00.332Z,1028.45
2019-04-01T06:31:00.283Z,1028.45
2019-04-01T06:33:00.294Z,1028.43
2019-04-01T06:35:00.380Z,1028.41
2019-04-01T06:37:04.288Z,1028.41
2019-04-01T06:39:00.293Z,1028.39
2019-04-01T06:41:00.337Z,1028.38
2019-04-01T06:43:04.831Z,1028.36
2019-04-01T06:45:01.150Z,1028.35
2019-04-01T06:47:00.373Z,1028.39
2019-04-01T06:49:04.931Z,1028.36
2019-04-01T06:51:00.314Z,1028.29
2019-04-01T06:53:05.367Z,1028.32
2019-04-01T06:55:00.363Z,1028.32
2019-04-01T06:57:00.313Z,1028.28
2019-04-01T06:59:04.796Z,1028.26
2019-04-01T07:01:00.325Z,1028.37
2019-04-01T07:03:04.392Z,1028.27
2019-04-01T07:05:00.408Z,1028.32
2019-04-01T07:07:18.114Z,1028.31
2019-04-01T07:09:00.278Z,1028.27
2019-04-01T07:11:05.344Z,1028.29
2019-04-01T07:13:04.974Z,1028.25
2019-04-01T07:15:04.778Z,1028.23
2019-04-01T07:17:05.542Z,1028.20
2019-04-01T07:19:01.746Z,1028.21
2019-04-01T07:21:00.350Z,1028.18
2019-04-01T07:23:04.567Z,1028.15
2019-04-01T07:25:00.491Z,1028.18
2019-04-01T07:27:00.339Z,1028.18
2019-04-01T07:29:00.348Z,1028.11
2019-04-01T07:31:00.320Z,1028.11
2019-04-01T07:33:00.336Z,1028.10
2019-04-01T07:35:00.377Z,1028.06
2019-04-01T07:37:00.324Z,1028.05
2019-04-01T07:39:04.757Z,1027.97
2019-04-01T07:45:00.435Z,1027.94
2019-04-01T07:47:00.318Z,1027.91
2019-04-01T07:51:00.362Z,1027.83
2019-04-01T07:53:00.348Z,1027.81
2019-04-01T07:57:00.307Z,1027.75
2019-04-01T07:59:00.321Z,1027.70
2019-04-01T08:03:04.774Z,1027.69
2019-04-01T08:05:00.397Z,1027.69
2019-04-01T08:09:00.338Z,1027.61
2019-04-01T08:11:02.379Z,1027.61
2019-04-01T08:15:00.428Z,1027.64
2019-04-01T08:17:05.470Z,1027.64
2019-04-01T08:21:01.222Z,1027.64
2019-04-01T08:23:00.330Z,1027.64
2019-04-01T08:27:07.367Z,1027.65
2019-04-01T08:29:00.346Z,1027.59
2019-04-01T08:33:00.335Z,1027.57
2019-04-01T08:35:00.490Z,1027.58
2019-04-01T08:39:00.350Z,1027.63
2019-04-01T08:41:05.456Z,1027.57
2019-04-01T08:45:00.486Z,1027.48
2019-04-01T08:47:00.353Z,1027.48
2019-04-01T08:51:00.339Z,1027.45
2019-04-01T08:53:00.322Z,1027.43
2019-04-01T08:57:00.340Z,1027.47
2019-04-01T08:59:41.954Z,1027.44
2019-04-01T09:03:00.379Z,1027.48
2019-04-01T09:05:00.374Z,1027.37
2019-04-01T09:09:00.319Z,1027.34
2019-04-01T09:11:00.383Z,1027.37
2019-04-01T09:17:00.376Z,1027.33
2019-04-01T09:19:00.356Z,1027.33
2019-04-01T09:23:00.348Z,1027.19
2019-04-01T09:25:04.800Z,1027.22
2019-04-01T09:29:00.352Z,1027.18
2019-04-01T09:31:05.023Z,1027.07
2019-04-01T09:35:00.554Z,1027.05
2019-04-01T09:37:00.370Z,1027.04
2019-04-01T09:41:00.375Z,1026.92
2019-04-01T09:43:04.901Z,1026.91
2019-04-01T09:47:00.361Z,1026.85
2019-04-01T09:49:00.381Z,1026.77
2019-04-01T09:53:02.235Z,1026.83
2019-04-01T09:55:06.262Z,1026.84
2019-04-01T09:59:05.598Z,1026.73
2019-04-01T10:01:00.397Z,1026.75
2019-04-01T10:05:00.506Z,1026.67
2019-04-01T10:07:00.381Z,1026.65
2019-04-01T10:11:00.401Z,1026.57
2019-04-01T10:13:00.428Z,1026.58
2019-04-01T10:17:00.385Z,1026.58
2019-04-01T10:19:00.369Z,1026.46
2019-04-01T10:23:00.387Z,1026.42
2019-04-01T10:25:00.450Z,1026.44
2019-04-01T10:29:00.420Z,1026.33
2019-04-01T10:31:05.195Z,1026.35
2019-04-01T10:35:00.449Z,1026.18
2019-04-01T10:37:00.395Z,1026.13
2019-04-01T10:41:00.391Z,1026.02
2019-04-01T10:43:00.492Z,1026.02
2019-04-01T10:47:05.418Z,1025.91
2019-04-01T10:49:00.397Z,1025.79
2019-04-01T10:53:00.415Z,1025.76
2019-04-01T10:55:05.000Z,1025.75
2019-04-01T10:59:00.491Z,1025.59
2019-04-01T11:01:00.425Z,1025.51
2019-04-01T11:05:08.588Z,1025.56
2019-04-01T11:07:05.438Z,1025.51
2019-04-01T11:11:00.406Z,1025.49
2019-04-01T11:13:00.510Z,1025.40
2019-04-01T11:17:04.096Z,1025.39
2019-04-01T11:19:00.424Z,1025.40
2019-04-01T11:23:02.534Z,1025.38
2019-04-01T11:25:00.644Z,1025.39
2019-04-01T11:31:00.545Z,1025.39
2019-04-01T11:33:07.678Z,1025.30
2019-04-01T11:37:00.614Z,1025.27
2019-04-01T11:39:05.371Z,1025.20
2019-04-01T11:43:00.454Z,1025.18
2019-04-01T11:45:00.527Z,1025.08
2019-04-01T11:49:00.573Z,1025.16
2019-04-01T11:51:00.470Z,1025.17
2019-04-01T11:55:06.590Z,1025.00
2019-04-01T11:57:05.629Z,1025.00
2019-04-01T12:01:05.600Z,1024.77
2019-04-01T12:03:00.506Z,1024.84
2019-04-01T12:07:02.164Z,1024.77
2019-04-01T12:09:03.396Z,1024.79
2019-04-01T12:13:00.463Z,1024.73
2019-04-01T12:15:00.609Z,1024.59
2019-04-01T12:19:00.597Z,1024.56
2019-04-01T12:21:00.417Z,1024.57
2019-04-01T12:25:00.597Z,1024.52
2019-04-01T12:27:00.416Z,1024.43
2019-04-01T12:31:00.567Z,1024.34
2019-04-01T12:33:05.471Z,1024.28
2019-04-01T12:37:00.628Z,1024.30
2019-04-01T12:39:00.564Z,1024.27
2019-04-01T12:43:02.152Z,1024.17
2019-04-01T12:45:00.581Z,1024.15
2019-04-01T12:49:04.926Z,1024.09
2019-04-01T12:51:03.156Z,1024.00
2019-04-01T12:55:01.049Z,1024.02
2019-04-01T12:57:02.016Z,1023.92
2019-04-01T13:01:01.261Z,1023.84
2019-04-01T13:03:05.663Z,1023.77
2019-04-01T13:07:00.450Z,1023.79
2019-04-01T13:09:00.589Z,1023.75
2019-04-01T13:13:00.545Z,1023.58
2019-04-01T13:15:00.562Z,1023.60
2019-04-01T13:19:00.577Z,1023.57
2019-04-01T13:21:00.496Z,1023.51
2019-04-01T13:25:03.598Z,1023.52
2019-04-01T13:27:02.828Z,1023.50
2019-04-01T13:31:00.479Z,1023.35
2019-04-01T13:33:00.504Z,1023.32
2019-04-01T13:37:00.598Z,1023.28
2019-04-01T13:39:04.038Z,1023.19
2019-04-01T13:43:00.476Z,1023.10
2019-04-01T13:45:05.499Z,1023.08
2019-04-01T13:49:04.013Z,1023.02
2019-04-01T13:51:05.670Z,1022.98
2019-04-01T13:55:00.593Z,1023.00
2019-04-01T13:57:00.605Z,1022.84
2019-04-01T14:01:00.616Z,1022.75
2019-04-01T14:03:00.777Z,1022.79
2019-04-01T14:07:00.504Z,1022.69
2019-04-01T14:09:00.739Z,1022.71
2019-04-01T14:13:00.593Z,1022.61
2019-04-01T14:15:00.501Z,1022.58
2019-04-01T14:19:05.673Z,1022.47
2019-04-01T14:21:15.955Z,1022.45
2019-04-01T14:25:00.649Z,1022.41
2019-04-01T14:27:00.627Z,1022.31
2019-04-01T14:31:00.618Z,1022.28
2019-04-01T14:33:05.483Z,1022.20
2019-04-01T14:37:05.501Z,1022.13
2019-04-01T14:39:00.690Z,1022.15
2019-04-01T14:43:00.665Z,1022.08
2019-04-01T14:45:00.658Z,1022.00
2019-04-01T14:49:01.826Z,1022.01
2019-04-01T14:51:00.516Z,1022.03
2019-04-01T14:55:01.439Z,1021.91
2019-04-01T14:57:00.690Z,1021.94
2019-04-01T15:01:01.410Z,1021.86
2019-04-01T15:03:00.499Z,1021.87
2019-04-01T15:07:00.729Z,1021.77
2019-04-01T15:09:05.458Z,1021.67
2019-04-01T15:13:05.612Z,1021.61
2019-04-01T15:15:01.466Z,1021.58
2019-04-01T15:19:05.494Z,1021.52
2019-04-01T15:21:00.717Z,1021.58
2019-04-01T15:25:00.771Z,1021.44
2019-04-01T15:27:00.655Z,1021.38
2019-04-01T15:31:00.635Z,1021.34
2019-04-01T15:33:09.229Z,1021.37
2019-04-01T15:37:00.569Z,1021.30
2019-04-01T15:39:00.528Z,1021.33
2019-04-01T15:43:00.510Z,1021.22
2019-04-01T15:45:06.393Z,1021.22
2019-04-01T15:49:04.523Z,1021.11
2019-04-01T15:51:05.149Z,1021.12
2019-04-01T15:55:01.629Z,1021.04
2019-04-01T15:57:00.688Z,1021.01
2019-04-01T16:01:01.259Z,1020.88
2019-04-01T16:03:03.554Z,1020.92
2019-04-01T16:07:00.792Z,1020.84
2019-04-01T16:09:03.460Z,1020.88
2019-04-01T16:13:05.499Z,1020.84
2019-04-01T16:15:00.516Z,1020.83
2019-04-01T16:19:01.454Z,1020.81
2019-04-01T16:21:00.581Z,1020.75
2019-04-01T16:25:00.660Z,1020.69
2019-04-01T16:27:06.176Z,1020.66
2019-04-01T16:31:00.559Z,1020.58
2019-04-01T16:33:00.518Z,1020.59
2019-04-01T16:37:00.655Z,1020.50
2019-04-01T16:39:00.551Z,1020.48
2019-04-01T16:43:02.625Z,1020.45
2019-04-01T16:45:01.410Z,1020.45
2019-04-01T16:49:05.526Z,1020.45
2019-04-01T16:51:03.222Z,1020.41
2019-04-01T16:55:04.922Z,1020.41
2019-04-01T16:57:01.467Z,1020.35
2019-04-01T17:01:02.507Z,1020.38
2019-04-01T17:03:00.714Z,1020.36
2019-04-01T17:07:00.544Z,1020.32
2019-04-01T17:09:00.566Z,1020.32
2019-04-01T17:13:01.508Z,1020.25
2019-04-01T17:15:03.440Z,1020.26
2019-04-01T17:17:36.673Z,1020.23
2019-04-01T17:19:41.224Z,1020.18
2019-04-01T17:21:36.639Z,1020.20
2019-04-01T17:23:36.957Z,1020.17
2019-04-01T17:37:31.850Z,1020.03
2019-04-01T17:39:31.179Z,1020.08
2019-04-01T17:41:31.130Z,1020.02
2019-04-01T17:43:31.186Z,1020.03
2019-04-01T17:45:31.148Z,1020.00
2019-04-01T17:47:31.161Z,1019.98
2019-04-01T17:49:31.436Z,1020.02
2019-04-01T17:51:31.146Z,1019.90
2019-04-01T17:53:31.140Z,1019.91
2019-04-01T17:55:35.728Z,1019.89
2019-04-01T17:57:31.131Z,1019.88
2019-04-01T17:59:35.672Z,1019.89
2019-04-01T18:01:31.192Z,1019.87
2019-04-01T18:03:35.781Z,1019.84
2019-04-01T18:05:31.134Z,1019.84
2019-04-01T18:07:36.531Z,1019.86
2019-04-01T18:09:31.460Z,1019.86
2019-04-01T18:11:31.156Z,1019.80
2019-04-01T18:13:35.825Z,1019.77
2019-04-01T18:15:31.154Z,1019.80
2019-04-01T18:17:36.162Z,1019.75
2019-04-01T18:19:36.531Z,1019.75
2019-04-01T18:21:32.039Z,1019.72
2019-04-01T18:23:31.155Z,1019.76
2019-04-01T18:25:31.211Z,1019.68
2019-04-01T18:27:31.207Z,1019.71
2019-04-01T18:29:31.164Z,1019.72
2019-04-01T18:31:31.211Z,1019.71
2019-04-01T18:33:32.050Z,1019.67
2019-04-01T18:35:31.174Z,1019.67
2019-04-01T18:37:31.246Z,1019.70
2019-04-01T18:39:47.379Z,1019.68
2019-04-01T18:41:31.158Z,1019.70
2019-04-01T18:43:31.220Z,1019.77
2019-04-01T18:45:31.164Z,1019.81
2019-04-01T18:47:31.169Z,1019.76
2019-04-01T18:49:31.184Z,1019.77
2019-04-01T18:51:31.171Z,1019.78
2019-04-01T18:53:31.174Z,1019.77
2019-04-01T18:55:31.528Z,1019.70
2019-04-01T18:57:31.159Z,1019.72
2019-04-01T18:59:35.503Z,1019.68
2019-04-01T19:01:31.200Z,1019.68
2019-04-01T19:03:31.204Z,1019.66
2019-04-01T19:05:31.177Z,1019.68
2019-04-01T19:07:36.157Z,1019.72
2019-04-01T19:09:32.679Z,1019.64
2019-04-01T19:11:31.187Z,1019.60
2019-04-01T19:13:31.255Z,1019.65
2019-04-01T19:15:31.524Z,1019.65
2019-04-01T19:17:31.179Z,1019.64
2019-04-01T19:19:31.204Z,1019.61
2019-04-01T19:21:31.204Z,1019.59
2019-04-01T19:23:35.080Z,1019.66
2019-04-01T19:25:31.230Z,1019.55
2019-04-01T19:27:31.177Z,1019.60
2019-04-01T19:29:31.174Z,1019.50
2019-04-01T19:31:36.214Z,1019.55
2019-04-01T19:33:31.241Z,1019.53
2019-04-01T19:35:32.163Z,1019.49
2019-04-01T19:41:31.187Z,1019.45
2019-04-01T19:43:31.185Z,1019.42
2019-04-01T19:47:31.188Z,1019.32
2019-04-01T19:49:31.193Z,1019.25
2019-04-01T19:53:31.202Z,1019.24
2019-04-01T19:55:31.192Z,1019.25
2019-04-01T19:59:31.224Z,1019.28
2019-04-01T20:01:31.195Z,1019.20
2019-04-01T20:05:33.057Z,1019.20
2019-04-01T20:07:31.186Z,1019.14
2019-04-01T20:11:31.199Z,1019.15
2019-04-01T20:13:31.187Z,1019.08
2019-04-01T20:17:31.206Z,1019.08
2019-04-01T20:19:31.201Z,1019.14
2019-04-01T20:23:31.222Z,1019.03
2019-04-01T20:25:31.208Z,1019.05
2019-04-01T20:29:31.207Z,1019.03
2019-04-01T20:31:31.218Z,1019.02
2019-04-01T20:35:36.164Z,1018.95
2019-04-01T20:37:31.236Z,1018.93
2019-04-01T20:41:36.239Z,1018.84
2019-04-01T20:43:33.913Z,1018.86
2019-04-01T20:47:31.216Z,1018.72
2019-04-01T20:49:31.217Z,1018.76
2019-04-01T20:53:36.206Z,1018.76
2019-04-01T20:55:31.272Z,1018.78
2019-04-01T20:59:38.026Z,1018.73
2019-04-01T21:01:36.793Z,1018.68
2019-04-01T21:05:31.231Z,1018.65
2019-04-01T21:07:31.238Z,1018.63
2019-04-01T21:11:36.233Z,1018.55
2019-04-01T21:13:31.238Z,1018.46
2019-04-01T21:17:31.211Z,1018.45
2019-04-01T21:19:31.239Z,1018.44
2019-04-01T21:23:31.238Z,1018.39
2019-04-01T21:25:31.215Z,1018.34
2019-04-01T21:29:31.378Z,1018.22
2019-04-01T21:31:36.439Z,1018.20
2019-04-01T21:35:31.255Z,1018.16
2019-04-01T21:37:31.231Z,1018.15
2019-04-01T21:41:31.325Z,1018.04
2019-04-01T21:43:36.231Z,1018.01
2019-04-01T21:47:31.374Z,1018.05
2019-04-01T21:49:31.247Z,1017.96
2019-04-01T21:53:31.623Z,1017.93
2019-04-01T21:55:35.997Z,1017.85
2019-04-01T21:59:31.237Z,1017.76
2019-04-01T22:01:31.220Z,1017.70
2019-04-01T22:05:31.249Z,1017.56
2019-04-01T22:07:31.237Z,1017.57
2019-04-01T22:11:31.258Z,1017.56
2019-04-01T22:13:31.263Z,1017.58
2019-04-01T22:17:31.238Z,1017.52
2019-04-01T22:19:31.248Z,1017.49
2019-04-01T22:23:31.249Z,1017.42
2019-04-01T22:25:35.665Z,1017.43
2019-04-01T22:29:32.089Z,1017.40
2019-04-01T22:31:36.330Z,1017.40
2019-04-01T22:35:38.510Z,1017.37
2019-04-01T22:37:31.369Z,1017.39
2019-04-01T22:41:31.262Z,1017.33
2019-04-01T22:43:31.280Z,1017.26
2019-04-01T22:47:31.438Z,1017.26
2019-04-01T22:49:31.259Z,1017.29
2019-04-01T22:53:32.333Z,1017.22
2019-04-01T22:55:31.389Z,1017.14
2019-04-01T22:59:35.993Z,1017.07
2019-04-01T23:01:31.331Z,1017.12
2019-04-01T23:05:31.279Z,1017.02
2019-04-01T23:07:33.019Z,1016.93
2019-04-01T23:11:36.234Z,1016.83
2019-04-01T23:13:31.423Z,1016.84
2019-04-01T23:17:31.385Z,1016.81
2019-04-01T23:19:31.265Z,1016.82
2019-04-01T23:23:42.624Z,1016.80
2019-04-01T23:25:36.325Z,1016.73
2019-04-01T23:29:33.180Z,1016.67
2019-04-01T23:31:33.713Z,1016.64
2019-04-01T23:35:36.303Z,1016.61
2019-04-01T23:37:36.172Z,1016.55
2019-04-01T23:43:31.470Z,1016.44
2019-04-01T23:45:36.231Z,1016.42
2019-04-01T23:49:31.315Z,1016.40
2019-04-01T23:51:36.609Z,1016.40
2019-04-01T23:55:31.285Z,1016.34
2019-04-01T23:57:31.379Z,1016.31
